Time;durP1;ratioP1;P1;durP2;ratioP2;P2;SDS_P1;SDS_P2;PMS_P1;PMS_P2;Temp;Humidity;BMP_temperature;BMP_pressure;BME280_temperature;BME280_humidity;BME280_pressure;Samples;Min_cycle;Max_cycle;Signal;HPM_P1;HPM_P2
2023/04/07 00:01:29;;;;;;;1.90;1.65;;;15.70;54.40;;;;;;5052808;28;20171;-69
2023/04/07 00:03:54;;;;;;;1.95;1.80;;;15.80;54.60;;;;;;5051826;28;20174;-69
2023/04/07 00:06:20;;;;;;;2.25;2.10;;;15.70;54.40;;;;;;5052701;28;20257;-69
2023/04/07 00:08:45;;;;;;;2.10;1.92;;;15.70;54.50;;;;;;5053061;28;20175;-68
2023/04/07 00:11:11;;;;;;;1.70;1.60;;;15.60;54.40;;;;;;5051975;28;20689;-69
2023/04/07 00:13:36;;;;;;;1.73;1.63;;;15.70;54.50;;;;;;5052689;28;20622;-69
2023/04/07 00:16:02;;;;;;;1.80;1.70;;;15.70;54.50;;;;;;5052716;28;20187;-68
2023/04/07 00:18:27;;;;;;;1.77;1.67;;;15.60;54.40;;;;;;5051897;28;20185;-68
2023/04/07 00:20:53;;;;;;;1.75;1.65;;;15.70;54.50;;;;;;5052592;28;20650;-68
2023/04/07 00:23:19;;;;;;;2.00;1.90;;;15.70;54.50;;;;;;5052095;28;20256;-68
2023/04/07 00:25:46;;;;;;;2.20;1.90;;;15.60;54.60;;;;;;5052091;28;20207;-69
2023/04/07 00:28:12;;;;;;;2.05;1.95;;;15.70;54.60;;;;;;5051277;28;20657;-68
2023/04/07 00:30:37;;;;;;;2.45;2.17;;;15.70;55.10;;;;;;5052807;28;20213;-72
2023/04/07 00:33:03;;;;;;;2.35;2.15;;;15.70;54.60;;;;;;5051887;28;20218;-70
2023/04/07 00:35:28;;;;;;;2.35;2.15;;;15.60;54.70;;;;;;5052149;28;20175;-68
2023/04/07 00:37:54;;;;;;;2.40;2.20;;;15.70;54.70;;;;;;5052576;28;20182;-68
2023/04/07 00:40:19;;;;;;;2.60;2.40;;;15.60;54.60;;;;;;5051366;28;20182;-68
2023/04/07 00:42:45;;;;;;;2.50;2.25;;;15.60;54.60;;;;;;5052570;28;20172;-69
2023/04/07 00:45:11;;;;;;;2.25;2.10;;;15.60;55.20;;;;;;5052013;28;20257;-68
2023/04/07 00:47:37;;;;;;;2.40;2.20;;;15.60;54.60;;;;;;5051866;28;20183;-69
2023/04/07 00:50:03;;;;;;;2.83;2.63;;;15.60;54.60;;;;;;5051226;28;20175;-69
2023/04/07 00:52:29;;;;;;;3.10;2.38;;;15.60;54.60;;;;;;5052268;28;20203;-68
2023/04/07 00:54:55;;;;;;;2.50;2.30;;;15.60;54.70;;;;;;5051443;28;20256;-69
2023/04/07 00:57:21;;;;;;;3.03;2.72;;;15.60;54.70;;;;;;5052122;28;20175;-69
2023/04/07 00:59:48;;;;;;;2.90;2.70;;;15.60;54.70;;;;;;5051475;28;20649;-69
2023/04/07 01:02:26;;;;;;;2.67;2.47;;;15.60;54.70;;;;;;5051896;28;20190;-69
2023/04/07 01:05:10;;;;;;;2.90;2.70;;;15.60;54.80;;;;;;5051063;28;20217;-70
2023/04/07 01:08:02;;;;;;;2.67;2.42;;;15.60;55.50;;;;;;5051487;28;20178;-68
2023/04/07 01:10:49;;;;;;;2.40;2.20;;;15.60;54.80;;;;;;5051723;28;20206;-66
2023/04/07 01:13:46;;;;;;;2.60;2.40;;;15.60;54.70;;;;;;5050286;28;20547;-67
2023/04/07 01:16:14;;;;;;;2.08;1.88;;;15.60;54.70;;;;;;5050534;28;20175;-68
2023/04/07 01:18:40;;;;;;;2.70;2.50;;;15.50;55.30;;;;;;5050860;28;20652;-67
2023/04/07 01:21:10;;;;;;;2.42;2.22;;;15.50;54.70;;;;;;5033131;28;20196;-67
2023/04/07 01:23:48;;;;;;;2.38;2.20;;;15.50;54.80;;;;;;5050604;28;20661;-67
2023/04/07 01:26:27;;;;;;;2.75;2.55;;;15.50;54.70;;;;;;5050441;28;20218;-67
2023/04/07 01:29:20;;;;;;;2.70;2.50;;;15.50;54.90;;;;;;5049953;28;20175;-71
2023/04/07 01:31:45;;;;;;;2.38;2.17;;;15.50;54.90;;;;;;5052075;28;20182;-70
2023/04/07 01:34:11;;;;;;;2.95;2.13;;;15.50;54.90;;;;;;5033975;28;20691;-69
2023/04/07 01:36:37;;;;;;;2.67;2.35;;;15.50;54.80;;;;;;5033246;28;20183;-68
2023/04/07 01:39:02;;;;;;;2.30;2.10;;;15.50;55.00;;;;;;5051658;28;20179;-68
2023/04/07 01:41:28;;;;;;;3.08;2.40;;;15.50;54.80;;;;;;5033677;28;20254;-68
2023/04/07 01:43:53;;;;;;;2.38;2.22;;;15.50;54.80;;;;;;5049733;28;20175;-69
2023/04/07 01:46:19;;;;;;;2.17;2.05;;;15.50;54.80;;;;;;5051669;28;20210;-68
2023/04/07 01:48:45;;;;;;;2.30;2.13;;;15.50;54.70;;;;;;5051714;28;20595;-69
2023/04/07 01:51:16;;;;;;;2.30;2.10;;;15.50;54.80;;;;;;5049459;28;20674;-68
2023/04/07 01:53:41;;;;;;;2.40;2.20;;;15.50;54.70;;;;;;5034771;28;20199;-68
2023/04/07 01:56:07;;;;;;;2.33;2.17;;;15.50;54.70;;;;;;5032666;28;20218;-68
2023/04/07 01:58:32;;;;;;;2.08;1.98;;;15.40;54.70;;;;;;5051647;28;20172;-69
2023/04/07 02:00:58;;;;;;;2.20;2.00;;;15.50;54.70;;;;;;5051728;28;20171;-69
2023/04/07 02:03:29;;;;;;;2.47;2.28;;;15.40;54.80;;;;;;5049551;28;20171;-68
2023/04/07 02:05:57;;;;;;;2.38;2.17;;;15.50;54.80;;;;;;5050151;28;20276;-68
2023/04/07 02:08:23;;;;;;;4.07;2.10;;;15.50;54.80;;;;;;5049720;28;20179;-67
2023/04/07 02:10:48;;;;;;;2.60;2.40;;;15.50;54.90;;;;;;5032838;28;20180;-68
2023/04/07 02:13:17;;;;;;;2.45;2.03;;;15.50;54.90;;;;;;5049829;28;20229;-68
2023/04/07 02:15:44;;;;;;;2.10;1.95;;;15.40;54.80;;;;;;5051387;28;20179;-67
2023/04/07 02:18:11;;;;;;;2.42;2.22;;;15.40;54.80;;;;;;5048881;28;20229;-67
2023/04/07 02:20:37;;;;;;;2.25;2.08;;;15.40;54.90;;;;;;5050116;28;20187;-68
2023/04/07 02:23:02;;;;;;;2.25;2.05;;;15.40;55.00;;;;;;5049685;28;20315;-68
2023/04/07 02:25:29;;;;;;;2.42;2.22;;;15.40;54.90;;;;;;5050421;28;20214;-67
2023/04/07 02:27:58;;;;;;;1.88;1.77;;;15.40;54.80;;;;;;5053494;28;20175;-69
2023/04/07 02:30:24;;;;;;;2.35;1.80;;;15.40;55.00;;;;;;5054602;28;20183;-69
2023/04/07 02:32:49;;;;;;;2.20;2.00;;;15.40;54.90;;;;;;5052988;28;20171;-70
2023/04/07 02:35:18;;;;;;;1.90;1.80;;;15.40;54.80;;;;;;5054362;28;20626;-68
2023/04/07 02:37:44;;;;;;;2.05;1.88;;;15.40;54.80;;;;;;5054679;28;20193;-68
2023/04/07 02:40:09;;;;;;;2.15;2.03;;;15.40;54.80;;;;;;5053586;28;20642;-68
2023/04/07 02:42:35;;;;;;;2.30;2.10;;;15.40;54.90;;;;;;5055008;28;20171;-69
2023/04/07 02:45:02;;;;;;;1.98;1.80;;;15.40;54.90;;;;;;5054679;28;20210;-69
2023/04/07 02:47:27;;;;;;;2.20;2.00;;;15.40;54.90;;;;;;5053598;28;20171;-69
2023/04/07 02:49:53;;;;;;;2.33;2.13;;;15.40;55.00;;;;;;5054427;28;20341;-69
2023/04/07 02:52:18;;;;;;;2.33;2.10;;;15.40;55.00;;;;;;5053878;28;20261;-68
2023/04/07 02:54:44;;;;;;;1.80;1.70;;;15.40;54.90;;;;;;5054406;28;20271;-69
2023/04/07 02:57:09;;;;;;;2.45;2.25;;;15.40;55.00;;;;;;5054291;28;20262;-69
2023/04/07 02:59:35;;;;;;;2.33;2.22;;;15.40;54.90;;;;;;5053804;28;20258;-69
2023/04/07 03:02:00;;;;;;;2.17;1.98;;;15.40;55.00;;;;;;5054375;28;20246;-69
2023/04/07 03:04:27;;;;;;;2.13;2.00;;;15.30;55.00;;;;;;5053995;28;20314;-68
2023/04/07 03:06:52;;;;;;;2.22;2.00;;;15.30;54.90;;;;;;5053596;28;20300;-69
2023/04/07 03:09:18;;;;;;;2.55;2.15;;;15.30;54.90;;;;;;5053979;28;20637;-67
2023/04/07 03:11:43;;;;;;;2.30;2.10;;;15.30;55.00;;;;;;5054089;28;20179;-68
2023/04/07 03:14:09;;;;;;;2.55;2.33;;;15.30;55.10;;;;;;5053054;28;20171;-68
2023/04/07 03:16:35;;;;;;;2.78;2.10;;;15.30;55.60;;;;;;5053976;28;20178;-69
2023/04/07 03:19:00;;;;;;;2.63;2.40;;;15.30;55.10;;;;;;5053985;28;20178;-68
2023/04/07 03:21:27;;;;;;;2.60;2.40;;;15.30;55.20;;;;;;5052858;28;20234;-67
2023/04/07 03:23:53;;;;;;;2.53;2.33;;;15.30;55.10;;;;;;5053987;28;20182;-67
2023/04/07 03:26:18;;;;;;;2.63;2.42;;;15.30;55.00;;;;;;5053646;28;20210;-67
2023/04/07 03:28:44;;;;;;;2.80;2.55;;;15.30;55.10;;;;;;5053325;28;20246;-70
2023/04/07 03:31:10;;;;;;;2.40;2.15;;;15.30;55.10;;;;;;5053644;28;20590;-70
2023/04/07 03:33:35;;;;;;;2.65;2.45;;;15.30;55.10;;;;;;5053696;28;20182;-70
2023/04/07 03:36:01;;;;;;;2.42;2.22;;;15.30;55.20;;;;;;5052872;28;20198;-69
2023/04/07 03:38:26;;;;;;;2.20;2.00;;;15.30;55.10;;;;;;5052341;28;20168;-67
2023/04/07 03:40:52;;;;;;;2.78;2.50;;;15.20;55.00;;;;;;5053420;28;20175;-68
2023/04/07 03:43:17;;;;;;;3.00;2.72;;;15.20;55.00;;;;;;5052739;28;20197;-68
2023/04/07 03:45:43;;;;;;;3.22;2.15;;;15.30;55.10;;;;;;5053572;28;20215;-67
2023/04/07 03:48:11;;;;;;;2.13;2.00;;;15.20;55.10;;;;;;5053360;28;20244;-70
2023/04/07 03:50:40;;;;;;;3.42;2.53;;;15.30;55.20;;;;;;5052643;28;20179;-69
2023/04/07 03:53:06;;;;;;;3.17;2.40;;;15.20;55.20;;;;;;5053444;28;20171;-69
2023/04/07 03:55:32;;;;;;;2.47;2.28;;;15.20;55.10;;;;;;5053087;28;20175;-68
2023/04/07 03:57:57;;;;;;;2.13;2.03;;;15.30;55.10;;;;;;5051663;28;20265;-68
2023/04/07 04:00:23;;;;;;;2.50;2.30;;;15.20;55.10;;;;;;5051633;28;20218;-68
2023/04/07 04:02:48;;;;;;;2.10;2.00;;;15.30;55.20;;;;;;5052443;28;20170;-69
2023/04/07 04:05:14;;;;;;;2.63;2.42;;;15.30;55.10;;;;;;5051478;28;20215;-70
2023/04/07 04:07:40;;;;;;;2.67;2.47;;;15.20;55.70;;;;;;5053127;28;20256;-69
2023/04/07 04:10:06;;;;;;;2.78;2.13;;;15.20;55.10;;;;;;5052024;28;20194;-68
2023/04/07 04:12:31;;;;;;;2.42;2.22;;;15.20;55.20;;;;;;5052983;28;20258;-68
2023/04/07 04:14:57;;;;;;;2.22;1.83;;;15.20;55.20;;;;;;5052928;28;20274;-68
2023/04/07 04:17:24;;;;;;;2.45;2.25;;;15.20;55.10;;;;;;5051840;28;20179;-68
2023/04/07 04:19:50;;;;;;;1.90;1.80;;;15.20;55.10;;;;;;5052708;28;20285;-67
2023/04/07 04:22:15;;;;;;;2.20;2.00;;;15.20;55.20;;;;;;5052230;28;20582;-67
2023/04/07 04:24:41;;;;;;;2.20;2.05;;;15.20;55.20;;;;;;5051809;28;20257;-68
2023/04/07 04:27:06;;;;;;;3.10;2.42;;;15.20;55.10;;;;;;5052461;28;20182;-69
2023/04/07 04:29:32;;;;;;;2.45;2.20;;;15.20;55.10;;;;;;5052496;28;20642;-71
2023/04/07 04:31:58;;;;;;;2.30;2.10;;;15.20;55.10;;;;;;5051824;28;20171;-71
2023/04/07 04:34:23;;;;;;;2.38;2.00;;;15.20;55.10;;;;;;5052252;28;20270;-69
2023/04/07 04:36:49;;;;;;;2.08;1.98;;;15.20;55.00;;;;;;5052426;28;20175;-69
2023/04/07 04:39:14;;;;;;;2.20;2.10;;;15.20;55.10;;;;;;5051620;28;20175;-68
2023/04/07 04:41:40;;;;;;;2.45;2.13;;;15.20;55.10;;;;;;5052463;28;20177;-69
2023/04/07 04:44:05;;;;;;;2.40;2.05;;;15.20;55.10;;;;;;5052104;28;20197;-69
2023/04/07 04:46:31;;;;;;;3.28;2.30;;;15.20;55.10;;;;;;5051597;28;20175;-69
2023/04/07 04:48:57;;;;;;;2.10;1.90;;;15.20;55.10;;;;;;5052517;28;20187;-69
2023/04/07 04:51:22;;;;;;;3.47;1.85;;;15.10;55.10;;;;;;5051831;28;20183;-68
2023/04/07 04:53:48;;;;;;;2.30;2.10;;;15.20;55.20;;;;;;5051444;28;20171;-69
2023/04/07 04:56:14;;;;;;;1.98;1.88;;;15.20;55.10;;;;;;5051820;28;20183;-68
2023/04/07 04:58:41;;;;;;;2.38;2.17;;;15.20;55.10;;;;;;5052204;28;20190;-69
2023/04/07 05:01:06;;;;;;;2.45;2.10;;;15.20;55.20;;;;;;5051064;28;20265;-70
2023/04/07 05:03:32;;;;;;;3.30;2.40;;;15.30;55.30;;;;;;5052271;28;20229;-68
2023/04/07 05:05:57;;;;;;;2.30;2.10;;;15.30;55.30;;;;;;5051696;28;20211;-69
2023/04/07 05:08:23;;;;;;;2.33;2.00;;;15.30;55.20;;;;;;5052026;28;20494;-68
2023/04/07 05:10:48;;;;;;;3.17;2.00;;;15.40;55.10;;;;;;5052195;28;20175;-69
2023/04/07 05:13:14;;;;;;;2.97;2.00;;;15.40;55.30;;;;;;5051194;28;20605;-69
2023/04/07 05:15:42;;;;;;;1.85;1.75;;;15.40;55.30;;;;;;5052237;28;20179;-69
2023/04/07 05:18:08;;;;;;;2.90;2.13;;;15.40;55.20;;;;;;5051694;28;20171;-68
2023/04/07 05:20:34;;;;;;;2.03;1.83;;;15.40;55.10;;;;;;5051393;28;20178;-68
2023/04/07 05:22:59;;;;;;;2.42;2.22;;;15.40;55.10;;;;;;5051798;28;20265;-68
2023/04/07 05:25:25;;;;;;;2.45;2.05;;;15.40;55.30;;;;;;5051617;28;20257;-69
2023/04/07 05:27:50;;;;;;;2.58;1.98;;;15.30;55.30;;;;;;5051514;28;20257;-69
2023/04/07 05:30:16;;;;;;;2.30;2.10;;;15.40;55.40;;;;;;5051973;28;20364;-70
2023/04/07 05:32:41;;;;;;;2.47;2.28;;;15.30;55.40;;;;;;5051767;28;20256;-71
2023/04/07 05:35:07;;;;;;;2.05;1.85;;;15.30;55.40;;;;;;5050861;28;20245;-69
2023/04/07 05:37:33;;;;;;;2.22;2.03;;;15.30;55.40;;;;;;5051764;28;20172;-68
2023/04/07 05:39:58;;;;;;;2.38;2.17;;;15.30;55.40;;;;;;5051962;28;20174;-68
2023/04/07 05:42:24;;;;;;;2.25;1.77;;;15.40;55.40;;;;;;5051000;28;20174;-68
2023/04/07 05:44:50;;;;;;;1.90;1.80;;;15.40;55.20;;;;;;5051734;28;20207;-68
2023/04/07 05:47:16;;;;;;;2.78;2.40;;;15.40;55.40;;;;;;5051403;28;20254;-69
2023/04/07 05:49:44;;;;;;;3.58;2.50;;;15.40;55.40;;;;;;5051228;28;20270;-69
2023/04/07 05:52:11;;;;;;;2.47;1.83;;;15.40;55.40;;;;;;5051609;28;20258;-68
2023/04/07 05:54:39;;;;;;;2.03;1.83;;;15.40;55.50;;;;;;5051878;28;20211;-69
2023/04/07 05:57:04;;;;;;;1.95;1.75;;;15.40;55.40;;;;;;5050813;28;20191;-69
2023/04/07 05:59:30;;;;;;;2.50;1.90;;;15.30;55.30;;;;;;5051486;28;20652;-68
2023/04/07 06:01:55;;;;;;;1.70;1.60;;;15.40;55.10;;;;;;5052115;28;20182;-70
2023/04/07 06:04:21;;;;;;;2.53;1.50;;;15.50;55.10;;;;;;5054603;28;20178;-68
2023/04/07 06:06:46;;;;;;;1.60;1.50;;;15.60;55.00;;;;;;5055491;28;20183;-68
2023/04/07 06:09:12;;;;;;;1.67;1.58;;;15.70;54.80;;;;;;5055088;28;20209;-68
2023/04/07 06:11:37;;;;;;;1.85;1.73;;;15.90;54.70;;;;;;5054529;28;20175;-68
2023/04/07 06:14:03;;;;;;;2.42;1.80;;;16.00;54.40;;;;;;5055369;28;20171;-68
2023/04/07 06:16:28;;;;;;;2.50;1.50;;;16.20;54.20;;;;;;5054026;28;20250;-67
2023/04/07 06:18:54;;;;;;;1.70;1.60;;;16.40;53.90;;;;;;5053974;28;20262;-67
2023/04/07 06:21:19;;;;;;;2.92;1.42;;;16.60;53.60;;;;;;5054676;28;20683;-67
2023/04/07 06:23:45;;;;;;;2.72;1.70;;;16.70;53.40;;;;;;5054643;28;20190;-67
2023/04/07 06:26:11;;;;;;;1.50;1.40;;;16.70;53.30;;;;;;5055006;28;20223;-68
2023/04/07 06:28:37;;;;;;;1.30;1.20;;;16.80;53.30;;;;;;5053961;28;20175;-71
2023/04/07 06:31:02;;;;;;;1.30;1.20;;;16.80;53.20;;;;;;5054285;28;20217;-71
2023/04/07 06:33:28;;;;;;;1.70;1.27;;;16.90;53.20;;;;;;5054948;28;20205;-70
2023/04/07 06:35:53;;;;;;;1.48;1.38;;;17.00;53.00;;;;;;5055109;28;20654;-69
2023/04/07 06:38:19;;;;;;;1.30;1.20;;;17.00;53.00;;;;;;5052727;28;20221;-67
2023/04/07 06:40:44;;;;;;;2.85;1.70;;;17.10;52.90;;;;;;5054927;28;20171;-68
2023/04/07 06:43:10;;;;;;;2.35;1.40;;;17.10;52.90;;;;;;5054674;28;20167;-71
2023/04/07 06:45:36;;;;;;;2.30;1.58;;;17.20;53.00;;;;;;5054168;28;20214;-68
2023/04/07 06:48:01;;;;;;;2.38;1.55;;;17.20;52.90;;;;;;5054958;28;20168;-71
2023/04/07 06:50:27;;;;;;;1.52;1.38;;;17.20;53.00;;;;;;5054617;28;20638;-68
2023/04/07 06:52:52;;;;;;;2.20;1.63;;;17.20;53.10;;;;;;5053704;28;20167;-69
2023/04/07 06:55:18;;;;;;;1.83;1.25;;;17.20;53.10;;;;;;5054273;28;20171;-67
2023/04/07 06:57:43;;;;;;;5.50;1.67;;;17.20;53.30;;;;;;5054475;28;20171;-66
2023/04/07 07:00:09;;;;;;;3.03;1.33;;;17.20;53.40;;;;;;5053307;28;20186;-65
2023/04/07 07:02:35;;;;;;;3.42;1.42;;;17.30;53.40;;;;;;5054508;28;20171;-65
2023/04/07 07:05:00;;;;;;;3.05;1.55;;;17.30;53.40;;;;;;5054528;28;20302;-64
2023/04/07 07:07:26;;;;;;;2.17;1.30;;;17.30;53.70;;;;;;5053724;28;20232;-63
2023/04/07 07:09:52;;;;;;;2.88;1.70;;;17.30;53.70;;;;;;5054812;28;20190;-63
2023/04/07 07:12:18;;;;;;;2.75;1.60;;;17.40;53.80;;;;;;5054133;28;20197;-65
2023/04/07 07:14:43;;;;;;;2.95;1.20;;;17.50;53.80;;;;;;5053294;28;20551;-63
2023/04/07 07:17:09;;;;;;;3.25;1.38;;;17.50;53.80;;;;;;5053780;28;20175;-65
2023/04/07 07:19:35;;;;;;;1.30;1.10;;;17.60;53.80;;;;;;5054033;28;20548;-65
2023/04/07 07:22:02;;;;;;;2.70;1.23;;;17.50;53.80;;;;;;5053950;28;20223;-65
2023/04/07 07:24:28;;;;;;;2.60;1.80;;;17.60;54.00;;;;;;5053767;28;20578;-64
2023/04/07 07:26:55;;;;;;;1.33;1.23;;;17.60;53.90;;;;;;5053518;28;20187;-65
2023/04/07 07:29:23;;;;;;;1.30;1.15;;;17.50;53.90;;;;;;5053618;28;20186;-67
2023/04/07 07:31:49;;;;;;;2.45;1.55;;;17.60;53.90;;;;;;5054093;28;20182;-68
2023/04/07 07:34:15;;;;;;;1.20;1.10;;;17.60;53.90;;;;;;5053207;28;20178;-67
2023/04/07 07:36:40;;;;;;;1.15;1.05;;;17.60;53.90;;;;;;5053211;28;20281;-67
2023/04/07 07:39:06;;;;;;;2.63;1.65;;;17.70;54.00;;;;;;5053360;28;20174;-66
2023/04/07 07:41:31;;;;;;;1.92;1.20;;;17.70;53.90;;;;;;5053247;28;20266;-66
2023/04/07 07:43:57;;;;;;;2.22;1.10;;;17.70;53.90;;;;;;5053802;28;20615;-66
2023/04/07 07:46:24;;;;;;;3.20;1.25;;;17.70;53.90;;;;;;5053490;28;20743;-66
2023/04/07 07:48:50;;;;;;;3.30;1.10;;;17.70;53.90;;;;;;5053678;28;20179;-67
2023/04/07 07:51:17;;;;;;;2.15;1.10;;;17.60;54.10;;;;;;5053553;28;20175;-66
2023/04/07 07:53:43;;;;;;;1.48;1.00;;;17.50;54.20;;;;;;5053863;28;20179;-66
2023/04/07 07:56:08;;;;;;;1.55;1.33;;;17.30;54.30;;;;;;5052631;28;20228;-67
2023/04/07 07:58:34;;;;;;;2.45;1.23;;;17.20;54.40;;;;;;5053618;28;20163;-67
2023/04/07 08:00:59;;;;;;;1.08;1.02;;;17.20;54.70;;;;;;5053596;28;20258;-67
2023/04/07 08:03:25;;;;;;;2.53;1.08;;;17.00;54.80;;;;;;5052719;28;20200;-66
2023/04/07 08:05:51;;;;;;;0.88;0.80;;;17.00;54.80;;;;;;5053388;28;20677;-66
2023/04/07 08:08:16;;;;;;;1.13;1.02;;;17.10;55.00;;;;;;5053141;28;20174;-65
2023/04/07 08:10:41;;;;;;;2.35;1.20;;;17.10;54.90;;;;;;5052693;28;20167;-66
2023/04/07 08:13:07;;;;;;;2.33;1.30;;;17.10;54.90;;;;;;5052995;28;20171;-66
2023/04/07 08:15:33;;;;;;;1.88;1.25;;;17.00;54.80;;;;;;5053215;28;20626;-65
2023/04/07 08:17:59;;;;;;;2.05;0.98;;;17.00;55.00;;;;;;5052696;28;20179;-65
2023/04/07 08:20:25;;;;;;;1.33;1.23;;;17.00;55.00;;;;;;5053067;28;20389;-64
2023/04/07 08:22:51;;;;;;;1.92;1.63;;;16.90;55.10;;;;;;5052862;28;20223;-65
2023/04/07 08:25:17;;;;;;;3.33;0.98;;;16.90;55.30;;;;;;5051714;28;20211;-66
2023/04/07 08:27:42;;;;;;;1.52;1.10;;;16.90;55.30;;;;;;5053036;28;20533;-67
2023/04/07 08:30:08;;;;;;;3.03;1.10;;;16.90;55.30;;;;;;5051838;28;20269;-67
2023/04/07 08:32:37;;;;;;;1.83;1.20;;;16.90;55.30;;;;;;5052982;28;20171;-68
2023/04/07 08:35:03;;;;;;;0.90;0.90;;;16.90;55.30;;;;;;5052894;28;20180;-67
2023/04/07 08:37:30;;;;;;;1.05;1.00;;;16.90;55.20;;;;;;5051745;28;20167;-67
2023/04/07 08:39:55;;;;;;;2.72;1.58;;;16.90;55.20;;;;;;5052588;28;20346;-65
2023/04/07 08:42:22;;;;;;;2.28;1.00;;;16.90;55.30;;;;;;5052158;28;20250;-65
2023/04/07 08:44:48;;;;;;;2.10;1.10;;;16.90;55.20;;;;;;5050514;28;20622;-65
2023/04/07 08:47:13;;;;;;;1.98;1.17;;;16.90;55.40;;;;;;5051152;28;20220;-66
2023/04/07 08:49:39;;;;;;;4.85;1.20;;;16.90;55.40;;;;;;5051533;28;20182;-65
2023/04/07 08:52:05;;;;;;;1.77;1.27;;;16.90;55.60;;;;;;5050451;28;20217;-66
2023/04/07 08:54:32;;;;;;;1.98;1.10;;;16.90;55.60;;;;;;5051224;28;20179;-65
2023/04/07 08:56:58;;;;;;;2.38;0.95;;;16.90;55.70;;;;;;5051168;28;20175;-65
2023/04/07 08:59:27;;;;;;;1.77;1.38;;;16.90;55.70;;;;;;5051006;28;21043;-66
2023/04/07 09:01:52;;;;;;;1.98;0.93;;;16.90;55.60;;;;;;5050908;28;20183;-66
2023/04/07 09:04:18;;;;;;;1.85;0.90;;;17.00;55.70;;;;;;5052074;28;20543;-65
2023/04/07 09:06:44;;;;;;;2.88;1.00;;;16.90;55.70;;;;;;5051774;28;20179;-65
2023/04/07 09:09:09;;;;;;;1.65;0.90;;;16.90;55.70;;;;;;5052034;28;20545;-63
2023/04/07 09:11:36;;;;;;;1.58;0.98;;;16.90;55.70;;;;;;5052186;28;20186;-63
2023/04/07 09:14:02;;;;;;;1.25;1.15;;;16.80;55.80;;;;;;5051328;28;20179;-65
2023/04/07 09:16:28;;;;;;;1.10;1.00;;;16.80;55.90;;;;;;5052038;28;20177;-63
2023/04/07 09:18:53;;;;;;;1.55;0.93;;;16.80;56.00;;;;;;5052168;28;20528;-64
2023/04/07 09:21:19;;;;;;;6.18;1.45;;;16.70;56.00;;;;;;5050947;28;20231;-70
2023/04/07 09:23:45;;;;;;;2.58;0.95;;;16.70;56.00;;;;;;5052086;28;20270;-70
2023/04/07 09:26:16;;;;;;;1.65;1.13;;;16.70;56.10;;;;;;5050983;28;20243;-69
2023/04/07 09:28:43;;;;;;;1.48;0.60;;;16.70;56.00;;;;;;5051950;28;20247;-68
2023/04/07 09:31:08;;;;;;;2.38;1.00;;;16.70;56.00;;;;;;5051389;28;20650;-69
2023/04/07 09:33:35;;;;;;;1.77;0.98;;;16.70;55.90;;;;;;5051182;28;20258;-69
2023/04/07 09:36:01;;;;;;;1.42;1.33;;;16.70;55.90;;;;;;5052509;28;20265;-68
2023/04/07 09:38:38;;;;;;;2.72;1.23;;;16.70;56.00;;;;;;5055723;28;20179;-68
2023/04/07 09:41:16;;;;;;;1.15;0.70;;;16.60;55.90;;;;;;5055489;28;20182;-68
2023/04/07 09:43:45;;;;;;;1.33;0.80;;;16.60;55.90;;;;;;5055998;28;20206;-68
2023/04/07 09:46:12;;;;;;;0.75;0.75;;;16.60;55.90;;;;;;5055668;28;20219;-68
2023/04/07 09:48:38;;;;;;;2.08;1.20;;;16.60;55.80;;;;;;5055120;28;20233;-68
2023/04/07 09:51:08;;;;;;;2.08;1.30;;;16.60;55.70;;;;;;5055779;28;20183;-68
2023/04/07 09:53:43;;;;;;;1.75;0.90;;;16.60;55.80;;;;;;5055851;28;20257;-68
2023/04/07 09:56:10;;;;;;;2.38;0.80;;;16.60;55.70;;;;;;5054594;28;20648;-69
2023/04/07 09:58:37;;;;;;;1.38;1.05;;;16.60;55.70;;;;;;5055678;28;20182;-69
2023/04/07 10:01:03;;;;;;;1.55;0.90;;;16.60;55.70;;;;;;5055397;28;20185;-69
2023/04/07 10:03:29;;;;;;;1.17;0.80;;;16.50;55.80;;;;;;5054304;28;20266;-68
2023/04/07 10:05:54;;;;;;;1.48;0.82;;;16.50;55.90;;;;;;5054270;28;20226;-67
2023/04/07 10:08:20;;;;;;;2.47;0.98;;;16.50;55.90;;;;;;5055340;28;20171;-67
2023/04/07 10:10:46;;;;;;;0.88;0.70;;;16.40;56.50;;;;;;5053408;28;20206;-67
2023/04/07 10:13:11;;;;;;;0.82;0.82;;;16.50;56.00;;;;;;5053871;28;20309;-68
2023/04/07 10:15:37;;;;;;;2.97;1.00;;;16.40;55.90;;;;;;5053408;28;20269;-67
2023/04/07 10:18:03;;;;;;;1.95;0.98;;;16.40;55.90;;;;;;5053938;28;20258;-67
2023/04/07 10:20:29;;;;;;;1.38;0.80;;;16.50;55.90;;;;;;5053955;28;20610;-67
2023/04/07 10:22:54;;;;;;;1.08;0.98;;;16.40;55.90;;;;;;5053099;28;20309;-67
2023/04/07 10:25:21;;;;;;;1.23;0.95;;;16.40;55.90;;;;;;5053683;28;20222;-67
2023/04/07 10:27:55;;;;;;;3.55;1.17;;;16.30;55.90;;;;;;5053800;28;20182;-68
2023/04/07 10:30:30;;;;;;;0.90;0.88;;;16.40;55.90;;;;;;5053018;28;20175;-68
2023/04/07 10:32:56;;;;;;;1.63;0.95;;;16.40;56.00;;;;;;5053954;28;20171;-69
2023/04/07 10:35:22;;;;;;;1.20;0.98;;;16.40;55.90;;;;;;5054582;28;20578;-69
2023/04/07 10:38:06;;;;;;;0.95;0.85;;;16.40;55.90;;;;;;5054286;28;20226;-68
2023/04/07 10:40:31;;;;;;;2.67;1.25;;;16.40;55.80;;;;;;5055086;28;20171;-67
2023/04/07 10:42:57;;;;;;;1.13;0.93;;;16.40;55.80;;;;;;5054743;28;20646;-68
2023/04/07 10:45:44;;;;;;;2.85;1.42;;;16.40;55.80;;;;;;5053939;28;20199;-68
2023/04/07 10:48:11;;;;;;;1.08;0.90;;;16.40;55.80;;;;;;5053902;28;20186;-68
2023/04/07 10:50:37;;;;;;;1.00;0.90;;;16.40;55.80;;;;;;5054178;28;20175;-69
2023/04/07 10:53:11;;;;;;;1.15;1.10;;;16.40;55.90;;;;;;5054711;28;20490;-68
2023/04/07 10:55:43;;;;;;;1.58;1.05;;;16.40;55.80;;;;;;5054593;28;20171;-68
2023/04/07 10:58:18;;;;;;;2.28;1.00;;;16.40;55.80;;;;;;5053679;28;20175;-69
2023/04/07 11:00:56;;;;;;;1.00;0.90;;;16.40;55.90;;;;;;5054724;28;20175;-68
2023/04/07 11:03:22;;;;;;;2.00;0.80;;;16.40;55.90;;;;;;5054304;28;20193;-68
2023/04/07 11:05:47;;;;;;;1.15;0.70;;;16.40;55.90;;;;;;5053702;28;20569;-67
2023/04/07 11:08:13;;;;;;;1.17;0.80;;;16.40;55.90;;;;;;5054083;28;20179;-67
2023/04/07 11:10:38;;;;;;;1.15;1.10;;;16.40;55.80;;;;;;5054303;28;20179;-67
2023/04/07 11:13:05;;;;;;;2.15;0.77;;;16.40;55.80;;;;;;5052620;28;20171;-68
2023/04/07 11:15:32;;;;;;;1.38;0.90;;;16.40;55.80;;;;;;5054288;28;20234;-68
2023/04/07 11:18:28;;;;;;;1.20;1.10;;;16.40;55.80;;;;;;5054292;28;20626;-66
2023/04/07 11:20:57;;;;;;;2.78;1.40;;;16.40;55.80;;;;;;5053104;28;20708;-68
2023/04/07 11:23:24;;;;;;;0.95;0.90;;;16.40;55.80;;;;;;5054107;28;20195;-68
2023/04/07 11:25:50;;;;;;;1.60;1.08;;;16.30;56.50;;;;;;5053488;28;20223;-66
2023/04/07 11:28:16;;;;;;;1.08;0.90;;;16.30;55.80;;;;;;5053784;28;20621;-68
2023/04/07 11:30:50;;;;;;;1.02;1.02;;;16.30;55.90;;;;;;5053957;28;20270;-68
2023/04/07 11:33:20;;;;;;;1.73;1.00;;;16.30;55.90;;;;;;5052891;28;20166;-69
2023/04/07 11:35:56;;;;;;;1.98;1.08;;;16.30;55.80;;;;;;5054154;28;20175;-68
2023/04/07 11:38:23;;;;;;;1.30;1.08;;;16.30;55.80;;;;;;5053626;28;20574;-67
2023/04/07 11:40:49;;;;;;;0.90;0.88;;;16.30;55.80;;;;;;5053293;28;20260;-68
2023/04/07 11:43:16;;;;;;;1.27;0.88;;;16.30;55.80;;;;;;5053671;28;20642;-67
2023/04/07 11:45:42;;;;;;;1.40;0.85;;;16.30;55.80;;;;;;5053657;28;20302;-68
2023/04/07 11:48:30;;;;;;;1.23;1.00;;;16.30;55.80;;;;;;5051677;28;20237;-68
2023/04/07 11:50:55;;;;;;;1.05;0.90;;;16.30;55.90;;;;;;5053491;28;20637;-68
2023/04/07 11:53:28;;;;;;;1.00;0.70;;;16.30;56.00;;;;;;5052116;28;20175;-68
2023/04/07 11:56:02;;;;;;;1.40;0.80;;;16.30;55.80;;;;;;5052714;28;20267;-68
2023/04/07 11:58:28;;;;;;;0.70;0.70;;;16.30;55.80;;;;;;5053302;28;20175;-68
2023/04/07 12:00:55;;;;;;;2.10;0.90;;;16.40;55.90;;;;;;5052242;28;20557;-68
2023/04/07 12:03:21;;;;;;;1.83;0.90;;;16.30;55.80;;;;;;5053130;28;20237;-68
2023/04/07 12:05:47;;;;;;;1.05;0.90;;;16.30;55.80;;;;;;5052353;28;20637;-67
2023/04/07 12:08:14;;;;;;;1.17;0.80;;;16.40;55.70;;;;;;5052316;28;20167;-67
2023/04/07 12:10:40;;;;;;;0.90;0.90;;;16.30;55.70;;;;;;5053030;28;20181;-67
2023/04/07 12:13:07;;;;;;;1.58;0.90;;;16.40;55.70;;;;;;5053005;28;20171;-68
2023/04/07 12:15:32;;;;;;;2.03;0.93;;;16.30;55.70;;;;;;5052452;28;20206;-68
2023/04/07 12:17:58;;;;;;;0.80;0.80;;;16.30;55.70;;;;;;5053043;28;20594;-67
2023/04/07 12:20:30;;;;;;;0.85;0.70;;;16.30;55.70;;;;;;5090001;27;20548;-67
2023/04/07 12:22:56;;;;;;;0.95;0.70;;;16.40;55.80;;;;;;5089047;28;20227;-67
2023/04/07 12:25:21;;;;;;;1.90;0.70;;;16.30;55.70;;;;;;5089629;28;20273;-67
2023/04/07 12:27:47;;;;;;;0.65;0.65;;;16.30;55.80;;;;;;5089963;28;20197;-67
2023/04/07 12:30:12;;;;;;;1.05;0.90;;;16.30;55.80;;;;;;5088794;28;20169;-68
2023/04/07 12:32:38;;;;;;;1.10;0.93;;;16.30;55.90;;;;;;5089567;28;20178;-70
2023/04/07 12:35:06;;;;;;;1.58;1.00;;;16.20;55.90;;;;;;5089610;28;20197;-68
2023/04/07 12:37:32;;;;;;;0.93;0.80;;;16.30;56.00;;;;;;5088821;28;20182;-68
2023/04/07 12:39:58;;;;;;;2.72;0.90;;;16.30;55.90;;;;;;5089362;28;20279;-67
2023/04/07 12:42:24;;;;;;;1.58;0.70;;;16.30;55.90;;;;;;5089394;28;20180;-67
2023/04/07 12:44:50;;;;;;;0.98;0.80;;;16.30;55.90;;;;;;5088836;28;20257;-68
2023/04/07 12:47:16;;;;;;;1.42;1.00;;;16.30;55.80;;;;;;5089036;28;20685;-68